sensor_id;sensor_type;location;lat;lon;timestamp;pressure;altitude;pressure_sealevel;temperature;humidity
19526;BME280;9907;42.676;26.348;2023-02-18T03:16:09;99447.06;;;4.92;65.27
19526;BME280;9907;42.676;26.348;2023-02-18T03:23:37;99459.66;;;4.59;66.77
19526;BME280;9907;42.676;26.348;2023-02-18T03:26:07;99459.00;;;4.99;65.38
19526;BME280;9907;42.676;26.348;2023-02-18T03:28:33;99457.78;;;5.05;65.39
19526;BME280;9907;42.676;26.348;2023-02-18T03:31:10;99450.38;;;4.96;65.00
19526;BME280;9907;42.676;26.348;2023-02-18T03:33:43;99452.34;;;4.78;65.90
19526;BME280;9907;42.676;26.348;2023-02-18T03:36:11;99462.31;;;5.03;64.80
19526;BME280;9907;42.676;26.348;2023-02-18T03:38:47;99461.63;;;4.99;65.16
19526;BME280;9907;42.676;26.348;2023-02-18T03:41:15;99462.69;;;4.97;65.82
19526;BME280;9907;42.676;26.348;2023-02-18T03:43:48;99460.94;;;4.81;66.05
19526;BME280;9907;42.676;26.348;2023-02-18T03:46:18;99453.78;;;4.83;65.78
19526;BME280;9907;42.676;26.348;2023-02-18T03:48:43;99460.41;;;4.90;65.66
19526;BME280;9907;42.676;26.348;2023-02-18T03:51:09;99459.28;;;4.95;65.35
19526;BME280;9907;42.676;26.348;2023-02-18T03:53:35;99457.09;;;4.87;65.95
19526;BME280;9907;42.676;26.348;2023-02-18T03:56:00;99462.50;;;5.00;65.74
19526;BME280;9907;42.676;26.348;2023-02-18T03:58:32;99457.41;;;5.11;64.52
19526;BME280;9907;42.676;26.348;2023-02-18T04:00:57;99455.59;;;4.97;65.24
19526;BME280;9907;42.676;26.348;2023-02-18T04:03:26;99457.97;;;5.02;65.31
19526;BME280;9907;42.676;26.348;2023-02-18T04:05:51;99462.16;;;5.06;65.02
19526;BME280;9907;42.676;26.348;2023-02-18T04:08:17;99464.84;;;4.90;65.84
19526;BME280;9907;42.676;26.348;2023-02-18T04:10:43;99464.06;;;4.88;65.63
19526;BME280;9907;42.676;26.348;2023-02-18T04:13:08;99472.88;;;4.88;66.29
19526;BME280;9907;42.676;26.348;2023-02-18T04:15:34;99466.84;;;5.01;65.28
19526;BME280;9907;42.676;26.348;2023-02-18T04:17:59;99464.06;;;4.88;65.82
19526;BME280;9907;42.676;26.348;2023-02-18T04:20:25;99461.75;;;4.98;65.41
19526;BME280;9907;42.676;26.348;2023-02-18T04:22:50;99456.06;;;4.89;65.83
19526;BME280;9907;42.676;26.348;2023-02-18T04:25:16;99453.03;;;4.96;65.59
19526;BME280;9907;42.676;26.348;2023-02-18T04:27:41;99443.34;;;4.80;66.48
19526;BME280;9907;42.676;26.348;2023-02-18T04:30:08;99437.06;;;4.83;66.50
19526;BME280;9907;42.676;26.348;2023-02-18T04:32:33;99426.81;;;4.77;66.66
19526;BME280;9907;42.676;26.348;2023-02-18T04:34:59;99428.13;;;4.70;67.25
19526;BME280;9907;42.676;26.348;2023-02-18T04:37:24;99430.19;;;4.95;66.91
19526;BME280;9907;42.676;26.348;2023-02-18T04:39:50;99431.19;;;4.92;67.04
19526;BME280;9907;42.676;26.348;2023-02-18T04:42:15;99425.78;;;4.79;67.63
19526;BME280;9907;42.676;26.348;2023-02-18T04:44:41;99419.84;;;4.76;67.32
19526;BME280;9907;42.676;26.348;2023-02-18T04:47:06;99425.03;;;4.91;66.55
19526;BME280;9907;42.676;26.348;2023-02-18T04:49:33;99426.09;;;4.89;67.48
19526;BME280;9907;42.676;26.348;2023-02-18T04:51:58;99425.44;;;5.00;66.82
19526;BME280;9907;42.676;26.348;2023-02-18T04:54:24;99419.94;;;4.88;67.76
19526;BME280;9907;42.676;26.348;2023-02-18T04:56:49;99413.97;;;4.85;68.18
19526;BME280;9907;42.676;26.348;2023-02-18T04:59:15;99409.16;;;4.91;67.27
19526;BME280;9907;42.676;26.348;2023-02-18T05:01:40;99414.28;;;4.95;67.44
19526;BME280;9907;42.676;26.348;2023-02-18T05:04:06;99416.81;;;4.96;67.02
19526;BME280;9907;42.676;26.348;2023-02-18T05:06:31;99423.94;;;5.10;68.89
19526;BME280;9907;42.676;26.348;2023-02-18T05:08:57;99415.31;;;4.92;67.33
19526;BME280;9907;42.676;26.348;2023-02-18T05:11:22;99421.44;;;4.93;66.97
19526;BME280;9907;42.676;26.348;2023-02-18T05:13:48;99424.50;;;5.01;70.06
19526;BME280;9907;42.676;26.348;2023-02-18T05:16:13;99426.88;;;5.19;67.55
19526;BME280;9907;42.676;26.348;2023-02-18T05:18:39;99439.72;;;5.54;72.15
19526;BME280;9907;42.676;26.348;2023-02-18T05:21:05;99440.38;;;5.29;66.86
19526;BME280;9907;42.676;26.348;2023-02-18T05:23:31;99443.69;;;5.04;67.00
19526;BME280;9907;42.676;26.348;2023-02-18T05:25:59;99441.50;;;5.11;66.93
19526;BME280;9907;42.676;26.348;2023-02-18T05:28:25;99442.69;;;5.21;66.64
19526;BME280;9907;42.676;26.348;2023-02-18T05:30:54;99447.31;;;5.17;67.74
19526;BME280;9907;42.676;26.348;2023-02-18T05:33:20;99450.91;;;5.16;67.30
19526;BME280;9907;42.676;26.348;2023-02-18T05:35:47;99452.09;;;5.11;68.40
19526;BME280;9907;42.676;26.348;2023-02-18T05:38:16;99447.47;;;5.14;68.15
19526;BME280;9907;42.676;26.348;2023-02-18T05:40:41;99451.44;;;5.21;66.61
19526;BME280;9907;42.676;26.348;2023-02-18T05:43:07;99449.31;;;5.28;66.22
19526;BME280;9907;42.676;26.348;2023-02-18T05:45:32;99450.97;;;5.29;66.54
19526;BME280;9907;42.676;26.348;2023-02-18T05:48:01;99459.31;;;5.37;66.38
19526;BME280;9907;42.676;26.348;2023-02-18T05:50:27;99459.03;;;5.42;66.24
19526;BME280;9907;42.676;26.348;2023-02-18T05:52:52;99467.25;;;5.23;66.40
19526;BME280;9907;42.676;26.348;2023-02-18T05:55:18;99463.69;;;5.24;66.33
19526;BME280;9907;42.676;26.348;2023-02-18T05:57:44;99463.88;;;5.21;66.33
19526;BME280;9907;42.676;26.348;2023-02-18T06:00:13;99458.38;;;5.24;65.91
19526;BME280;9907;42.676;26.348;2023-02-18T06:02:38;99458.38;;;5.24;66.06
19526;BME280;9907;42.676;26.348;2023-02-18T06:05:04;99465.34;;;5.25;65.38
19526;BME280;9907;42.676;26.348;2023-02-18T06:07:30;99465.19;;;5.28;65.62
19526;BME280;9907;42.676;26.348;2023-02-18T06:09:58;99463.94;;;5.33;68.81
19526;BME280;9907;42.676;26.348;2023-02-18T06:12:24;99468.41;;;5.33;66.29
19526;BME280;9907;42.676;26.348;2023-02-18T06:14:49;99469.16;;;5.35;66.76
19526;BME280;9907;42.676;26.348;2023-02-18T06:17:15;99451.75;;;5.45;65.61
19526;BME280;9907;42.676;26.348;2023-02-18T06:19:43;99457.13;;;5.44;65.27
19526;BME280;9907;42.676;26.348;2023-02-18T06:22:09;99442.47;;;5.52;64.98
19526;BME280;9907;42.676;26.348;2023-02-18T06:24:34;99446.72;;;5.55;64.92
19526;BME280;9907;42.676;26.348;2023-02-18T06:27:00;99447.84;;;5.51;64.62
19526;BME280;9907;42.676;26.348;2023-02-18T06:29:26;99445.69;;;5.57;64.73
19526;BME280;9907;42.676;26.348;2023-02-18T06:31:53;99443.69;;;5.61;64.63
19526;BME280;9907;42.676;26.348;2023-02-18T06:34:19;99440.94;;;5.62;65.31
19526;BME280;9907;42.676;26.348;2023-02-18T06:36:44;99436.19;;;5.67;64.88
19526;BME280;9907;42.676;26.348;2023-02-18T06:39:10;99438.56;;;5.72;65.04
19526;BME280;9907;42.676;26.348;2023-02-18T06:41:35;99440.94;;;5.76;65.16
19526;BME280;9907;42.676;26.348;2023-02-18T06:44:01;99431.81;;;5.80;65.59
19526;BME280;9907;42.676;26.348;2023-02-18T06:46:26;99432.41;;;5.71;65.91
19526;BME280;9907;42.676;26.348;2023-02-18T06:48:52;99433.06;;;5.75;66.09
19526;BME280;9907;42.676;26.348;2023-02-18T06:51:17;99438.81;;;5.81;65.91
19526;BME280;9907;42.676;26.348;2023-02-18T06:53:44;99435.78;;;5.87;65.94
19526;BME280;9907;42.676;26.348;2023-02-18T06:56:10;99438.44;;;5.87;65.91
19526;BME280;9907;42.676;26.348;2023-02-18T06:58:36;99432.56;;;5.97;66.20
19526;BME280;9907;42.676;26.348;2023-02-18T07:01:01;99438.97;;;6.07;66.17
19526;BME280;9907;42.676;26.348;2023-02-18T07:03:27;99435.66;;;6.03;63.92
19526;BME280;9907;42.676;26.348;2023-02-18T07:05:52;99420.72;;;6.02;63.49
19526;BME280;9907;42.676;26.348;2023-02-18T07:08:18;99420.13;;;6.11;63.83
19526;BME280;9907;42.676;26.348;2023-02-18T07:10:43;99436.59;;;6.16;64.36
19526;BME280;9907;42.676;26.348;2023-02-18T07:13:09;99429.66;;;6.14;63.96
19526;BME280;9907;42.676;26.348;2023-02-18T07:15:34;99424.91;;;6.19;64.45
19526;BME280;9907;42.676;26.348;2023-02-18T07:18:00;99415.59;;;6.26;64.24
19526;BME280;9907;42.676;26.348;2023-02-18T07:20:26;99419.06;;;6.14;63.56
19526;BME280;9907;42.676;26.348;2023-02-18T07:22:52;99416.88;;;6.20;63.58
19526;BME280;9907;42.676;26.348;2023-02-18T07:25:18;99423.78;;;6.23;63.28
19526;BME280;9907;42.676;26.348;2023-02-18T07:27:45;99425.16;;;6.28;62.65
19526;BME280;9907;42.676;26.348;2023-02-18T07:30:11;99412.88;;;6.40;62.77
19526;BME280;9907;42.676;26.348;2023-02-18T07:32:36;99414.94;;;6.49;62.85
19526;BME280;9907;42.676;26.348;2023-02-18T07:35:03;99418.97;;;6.55;62.16
19526;BME280;9907;42.676;26.348;2023-02-18T07:37:29;99417.16;;;6.55;62.50
19526;BME280;9907;42.676;26.348;2023-02-18T07:39:55;99411.97;;;6.54;62.99
19526;BME280;9907;42.676;26.348;2023-02-18T07:42:21;99414.63;;;6.54;63.07
19526;BME280;9907;42.676;26.348;2023-02-18T07:44:46;99418.31;;;6.51;62.24
19526;BME280;9907;42.676;26.348;2023-02-18T07:47:14;99410.91;;;6.56;62.43
19526;BME280;9907;42.676;26.348;2023-02-18T07:49:41;99414.50;;;6.55;62.52
19526;BME280;9907;42.676;26.348;2023-02-18T07:52:07;99416.31;;;6.55;62.65
19526;BME280;9907;42.676;26.348;2023-02-18T07:54:32;99415.38;;;6.56;62.70
19526;BME280;9907;42.676;26.348;2023-02-18T07:56:58;99403.50;;;6.61;63.43
19526;BME280;9907;42.676;26.348;2023-02-18T07:59:23;99403.81;;;6.57;63.27
19526;BME280;9907;42.676;26.348;2023-02-18T08:01:49;99408.91;;;6.60;64.07
19526;BME280;9907;42.676;26.348;2023-02-18T08:04:14;99409.00;;;6.58;63.90
19526;BME280;9907;42.676;26.348;2023-02-18T08:06:42;99399.88;;;6.62;64.26
19526;BME280;9907;42.676;26.348;2023-02-18T08:09:08;99406.25;;;6.60;64.60
19526;BME280;9907;42.676;26.348;2023-02-18T08:11:37;99395.41;;;6.63;64.76
19526;BME280;9907;42.676;26.348;2023-02-18T08:14:03;99397.56;;;6.70;64.60
19526;BME280;9907;42.676;26.348;2023-02-18T08:16:29;99383.31;;;6.71;63.46
19526;BME280;9907;42.676;26.348;2023-02-18T08:18:54;99390.78;;;6.79;63.27
19526;BME280;9907;42.676;26.348;2023-02-18T08:21:23;99387.81;;;6.83;62.84
19526;BME280;9907;42.676;26.348;2023-02-18T08:23:49;99385.56;;;6.90;63.02
19526;BME280;9907;42.676;26.348;2023-02-18T08:26:15;99383.00;;;6.89;62.57
19526;BME280;9907;42.676;26.348;2023-02-18T08:28:42;99380.91;;;6.94;64.20
19526;BME280;9907;42.676;26.348;2023-02-18T08:31:15;99377.81;;;7.00;62.28
19526;BME280;9907;42.676;26.348;2023-02-18T08:33:41;99376.31;;;7.08;61.93
19526;BME280;9907;42.676;26.348;2023-02-18T08:36:07;99371.53;;;7.01;62.11
19526;BME280;9907;42.676;26.348;2023-02-18T08:38:34;99377.94;;;6.98;61.39
19526;BME280;9907;42.676;26.348;2023-02-18T08:41:09;99375.91;;;7.02;62.23
19526;BME280;9907;42.676;26.348;2023-02-18T08:43:41;99363.91;;;7.09;61.73
19526;BME280;9907;42.676;26.348;2023-02-18T08:46:07;99370.47;;;7.16;61.85
19526;BME280;9907;42.676;26.348;2023-02-18T08:48:32;99374.63;;;7.20;61.81
19526;BME280;9907;42.676;26.348;2023-02-18T08:50:58;99368.63;;;7.29;61.63
19526;BME280;9907;42.676;26.348;2023-02-18T08:53:24;99371.28;;;7.29;60.28
19526;BME280;9907;42.676;26.348;2023-02-18T08:55:49;99370.34;;;7.30;59.94
19526;BME280;9907;42.676;26.348;2023-02-18T08:58:15;99369.03;;;7.35;60.60
19526;BME280;9907;42.676;26.348;2023-02-18T09:00:42;99365.22;;;7.40;59.66
19526;BME280;9907;42.676;26.348;2023-02-18T09:03:12;99364.88;;;7.44;59.44
19526;BME280;9907;42.676;26.348;2023-02-18T09:05:38;99348.63;;;7.49;59.60
19526;BME280;9907;42.676;26.348;2023-02-18T09:08:04;99363.47;;;7.64;62.14
19526;BME280;9907;42.676;26.348;2023-02-18T09:10:30;99353.78;;;7.63;59.60
19526;BME280;9907;42.676;26.348;2023-02-18T09:12:56;99358.31;;;7.73;59.28
19526;BME280;9907;42.676;26.348;2023-02-18T09:15:21;99347.34;;;7.78;59.50
19526;BME280;9907;42.676;26.348;2023-02-18T09:17:47;99360.75;;;8.00;59.04
19526;BME280;9907;42.676;26.348;2023-02-18T09:20:12;99353.69;;;8.12;58.75
19526;BME280;9907;42.676;26.348;2023-02-18T09:22:39;99354.94;;;8.19;59.09
19526;BME280;9907;42.676;26.348;2023-02-18T09:25:05;99343.81;;;8.25;58.72
19526;BME280;9907;42.676;26.348;2023-02-18T09:27:31;99342.13;;;8.24;58.36
19526;BME280;9907;42.676;26.348;2023-02-18T09:29:57;99340.88;;;8.17;58.71
19526;BME280;9907;42.676;26.348;2023-02-18T09:32:22;99342.97;;;8.24;57.85
19526;BME280;9907;42.676;26.348;2023-02-18T09:34:48;99329.53;;;8.26;57.30
19526;BME280;9907;42.676;26.348;2023-02-18T09:37:13;99333.00;;;8.39;58.39
19526;BME280;9907;42.676;26.348;2023-02-18T09:39:40;99323.34;;;8.38;57.96
19526;BME280;9907;42.676;26.348;2023-02-18T09:42:14;99336.88;;;8.46;57.08
19526;BME280;9907;42.676;26.348;2023-02-18T09:45:03;99321.41;;;8.51;57.17
19526;BME280;9907;42.676;26.348;2023-02-18T09:47:36;99335.22;;;8.45;57.04
19526;BME280;9907;42.676;26.348;2023-02-18T09:52:48;99319.75;;;8.61;56.29
19526;BME280;9907;42.676;26.348;2023-02-18T09:55:22;99316.72;;;8.66;55.93
19526;BME280;9907;42.676;26.348;2023-02-18T09:57:53;99314.91;;;8.66;55.69
19526;BME280;9907;42.676;26.348;2023-02-18T10:00:25;99315.78;;;8.67;55.71
19526;BME280;9907;42.676;26.348;2023-02-18T10:02:58;99313.47;;;8.73;56.23
19526;BME280;9907;42.676;26.348;2023-02-18T10:05:27;99306.94;;;8.77;56.08
19526;BME280;9907;42.676;26.348;2023-02-18T10:08:04;99303.66;;;8.74;55.64
19526;BME280;9907;42.676;26.348;2023-02-18T10:10:42;99310.09;;;8.83;55.38
19526;BME280;9907;42.676;26.348;2023-02-18T10:13:21;99302.31;;;8.79;55.25
19526;BME280;9907;42.676;26.348;2023-02-18T10:15:48;99298.84;;;8.79;55.41
19526;BME280;9907;42.676;26.348;2023-02-18T10:18:22;99297.50;;;8.85;54.87
19526;BME280;9907;42.676;26.348;2023-02-18T10:20:51;99300.91;;;8.87;54.84
19526;BME280;9907;42.676;26.348;2023-02-18T10:23:19;99296.78;;;8.83;54.66
19526;BME280;9907;42.676;26.348;2023-02-18T10:25:47;99299.91;;;8.88;54.16
19526;BME280;9907;42.676;26.348;2023-02-18T10:28:13;99296.78;;;8.94;54.47
19526;BME280;9907;42.676;26.348;2023-02-18T10:30:56;99298.00;;;8.90;54.53
19526;BME280;9907;42.676;26.348;2023-02-18T10:33:43;99290.25;;;8.98;54.74
19526;BME280;9907;42.676;26.348;2023-02-18T10:36:36;99300.41;;;9.04;55.07
19526;BME280;9907;42.676;26.348;2023-02-18T10:39:31;99287.44;;;8.99;54.73
19526;BME280;9907;42.676;26.348;2023-02-18T10:42:09;99289.25;;;8.99;55.22
19526;BME280;9907;42.676;26.348;2023-02-18T10:50:43;99270.25;;;9.03;53.79
19526;BME280;9907;42.676;26.348;2023-02-18T10:53:21;99283.31;;;9.06;53.82
19526;BME280;9907;42.676;26.348;2023-02-18T10:55:50;99259.22;;;9.08;53.71
19526;BME280;9907;42.676;26.348;2023-02-18T10:58:26;99260.19;;;9.07;53.77
19526;BME280;9907;42.676;26.348;2023-02-18T11:00:52;99251.47;;;9.16;54.10
19526;BME280;9907;42.676;26.348;2023-02-18T11:03:25;99250.13;;;9.21;57.09
19526;BME280;9907;42.676;26.348;2023-02-18T11:05:55;99254.34;;;9.24;53.80
19526;BME280;9907;42.676;26.348;2023-02-18T11:08:28;99247.59;;;9.20;53.15
19526;BME280;9907;42.676;26.348;2023-02-18T11:10:57;99251.47;;;9.27;53.36
19526;BME280;9907;42.676;26.348;2023-02-18T11:13:29;99240.41;;;9.32;53.42
19526;BME280;9907;42.676;26.348;2023-02-18T11:16:06;99239.19;;;9.36;53.50
19526;BME280;9907;42.676;26.348;2023-02-18T11:18:42;99229.13;;;9.39;54.79
19526;BME280;9907;42.676;26.348;2023-02-18T11:23:56;99205.72;;;9.43;53.22
19526;BME280;9907;42.676;26.348;2023-02-18T11:26:32;99208.25;;;9.44;53.18
19526;BME280;9907;42.676;26.348;2023-02-18T11:29:07;99208.75;;;9.49;54.16
19526;BME280;9907;42.676;26.348;2023-02-18T11:31:46;99197.09;;;9.50;53.60
19526;BME280;9907;42.676;26.348;2023-02-18T11:34:19;99201.94;;;9.56;53.98
19526;BME280;9907;42.676;26.348;2023-02-18T11:36:47;99187.75;;;9.56;53.40
19526;BME280;9907;42.676;26.348;2023-02-18T11:41:57;99197.31;;;9.58;53.04
19526;BME280;9907;42.676;26.348;2023-02-18T11:44:41;99176.28;;;9.65;54.80
19526;BME280;9907;42.676;26.348;2023-02-18T11:49:43;99186.59;;;9.69;52.93
19526;BME280;9907;42.676;26.348;2023-02-18T11:52:27;99171.31;;;9.71;52.85
19526;BME280;9907;42.676;26.348;2023-02-18T11:57:33;99183.59;;;9.84;53.37
19526;BME280;9907;42.676;26.348;2023-02-18T11:59:59;99171.97;;;9.85;53.15
19526;BME280;9907;42.676;26.348;2023-02-18T12:05:04;99168.75;;;9.91;53.57
19526;BME280;9907;42.676;26.348;2023-02-18T12:10:25;99171.63;;;9.99;57.27
19526;BME280;9907;42.676;26.348;2023-02-18T12:13:03;99161.16;;;10.07;52.52
19526;BME280;9907;42.676;26.348;2023-02-18T12:15:52;99164.53;;;10.09;52.83
19526;BME280;9907;42.676;26.348;2023-02-18T12:26:28;99140.25;;;10.12;51.94
19526;BME280;9907;42.676;26.348;2023-02-18T12:32:18;99147.00;;;10.27;52.72
19526;BME280;9907;42.676;26.348;2023-02-18T12:57:10;99089.66;;;10.71;53.32
19526;BME280;9907;42.676;26.348;2023-02-18T13:15:24;99068.19;;;11.30;54.09
19526;BME280;9907;42.676;26.348;2023-02-18T13:17:56;99069.47;;;11.45;52.89
19526;BME280;9907;42.676;26.348;2023-02-18T13:20:52;99052.63;;;12.01;52.46
19526;BME280;9907;42.676;26.348;2023-02-18T13:23:26;99059.06;;;12.45;51.41
19526;BME280;9907;42.676;26.348;2023-02-18T13:25:58;99052.66;;;12.55;51.91
19526;BME280;9907;42.676;26.348;2023-02-18T13:33:46;99038.94;;;12.86;53.08
19526;BME280;9907;42.676;26.348;2023-02-18T13:39:21;99041.50;;;13.23;50.88
19526;BME280;9907;42.676;26.348;2023-02-18T13:41:50;99020.13;;;13.56;50.78
19526;BME280;9907;42.676;26.348;2023-02-18T13:46:51;99024.97;;;13.53;50.80
19526;BME280;9907;42.676;26.348;2023-02-18T13:49:23;99030.06;;;13.82;50.73
19526;BME280;9907;42.676;26.348;2023-02-18T13:51:51;99020.94;;;14.00;49.09
19526;BME280;9907;42.676;26.348;2023-02-18T13:54:24;99013.13;;;14.15;49.29
19526;BME280;9907;42.676;26.348;2023-02-18T14:00:39;98996.13;;;14.40;48.71
19526;BME280;9907;42.676;26.348;2023-02-18T14:03:49;98988.81;;;14.67;48.22
19526;BME280;9907;42.676;26.348;2023-02-18T14:06:34;99002.16;;;14.42;48.58
19526;BME280;9907;42.676;26.348;2023-02-18T14:09:40;99013.19;;;14.31;48.62
19526;BME280;9907;42.676;26.348;2023-02-18T14:18:08;99009.94;;;14.53;47.98
19526;BME280;9907;42.676;26.348;2023-02-18T15:05:58;98981.09;;;14.72;47.68
19526;BME280;9907;42.676;26.348;2023-02-18T15:08:24;98979.41;;;14.79;47.92
19526;BME280;9907;42.676;26.348;2023-02-18T15:13:28;98984.97;;;14.93;47.28
19526;BME280;9907;42.676;26.348;2023-02-18T15:16:06;98988.84;;;14.83;47.45
19526;BME280;9907;42.676;26.348;2023-02-18T15:18:37;98986.00;;;14.84;46.97
19526;BME280;9907;42.676;26.348;2023-02-18T15:21:14;98979.75;;;14.76;47.31
19526;BME280;9907;42.676;26.348;2023-02-18T15:23:41;98977.41;;;14.73;47.70
19526;BME280;9907;42.676;26.348;2023-02-18T15:26:06;98989.19;;;14.88;46.99
19526;BME280;9907;42.676;26.348;2023-02-18T15:28:41;98983.44;;;14.67;47.57
19526;BME280;9907;42.676;26.348;2023-02-18T15:31:10;98978.06;;;14.75;47.25
19526;BME280;9907;42.676;26.348;2023-02-18T15:33:42;98978.06;;;14.75;47.23
19526;BME280;9907;42.676;26.348;2023-02-18T15:36:13;98981.25;;;14.78;46.76
19526;BME280;9907;42.676;26.348;2023-02-18T15:38:39;98985.09;;;14.68;47.16
19526;BME280;9907;42.676;26.348;2023-02-18T15:41:10;98987.63;;;14.61;47.49
19526;BME280;9907;42.676;26.348;2023-02-18T15:43:51;98991.38;;;14.84;46.76
19526;BME280;9907;42.676;26.348;2023-02-18T15:46:16;98992.56;;;14.82;47.15
19526;BME280;9907;42.676;26.348;2023-02-18T15:48:48;98979.75;;;14.76;46.97
19526;BME280;9907;42.676;26.348;2023-02-18T15:51:35;98982.09;;;14.63;46.89
19526;BME280;9907;42.676;26.348;2023-02-18T15:54:01;98996.56;;;14.70;47.57
19526;BME280;9907;42.676;26.348;2023-02-18T15:56:35;98991.19;;;14.70;47.15
19526;BME280;9907;42.676;26.348;2023-02-18T16:02:24;98996.56;;;14.70;47.18
19526;BME280;9907;42.676;26.348;2023-02-18T16:04:59;99007.63;;;14.67;47.04
19526;BME280;9907;42.676;26.348;2023-02-18T16:07:30;99011.84;;;14.69;46.99
19526;BME280;9907;42.676;26.348;2023-02-18T16:12:38;99000.09;;;14.70;46.78
19526;BME280;9907;42.676;26.348;2023-02-18T16:15:04;99007.13;;;14.71;46.54
19526;BME280;9907;42.676;26.348;2023-02-18T16:17:31;99001.75;;;14.71;46.59
19526;BME280;9907;42.676;26.348;2023-02-18T16:19:59;99011.69;;;14.79;46.87
19526;BME280;9907;42.676;26.348;2023-02-18T16:22:53;99008.31;;;14.77;46.51
19526;BME280;9907;42.676;26.348;2023-02-18T16:25:38;99005.63;;;14.69;46.32
19526;BME280;9907;42.676;26.348;2023-02-18T16:28:14;99024.75;;;14.66;46.86
19526;BME280;9907;42.676;26.348;2023-02-18T16:30:44;99013.19;;;14.73;46.55
19526;BME280;9907;42.676;26.348;2023-02-18T16:33:14;99023.78;;;14.67;46.64
19526;BME280;9907;42.676;26.348;2023-02-18T16:35:41;99020.75;;;14.70;46.99
19526;BME280;9907;42.676;26.348;2023-02-18T16:38:12;99018.41;;;14.67;46.68
19526;BME280;9907;42.676;26.348;2023-02-18T16:40:39;99017.38;;;14.68;46.95
19526;BME280;9907;42.676;26.348;2023-02-18T16:43:11;99013.84;;;14.59;46.92
19526;BME280;9907;42.676;26.348;2023-02-18T16:45:44;99025.91;;;14.55;46.93
19526;BME280;9907;42.676;26.348;2023-02-18T16:48:19;99025.22;;;14.53;46.63
19526;BME280;9907;42.676;26.348;2023-02-18T16:50:45;99018.00;;;14.53;46.81
19526;BME280;9907;42.676;26.348;2023-02-18T16:53:12;99024.38;;;14.52;47.09
19526;BME280;9907;42.676;26.348;2023-02-18T16:55:39;99028.38;;;14.40;47.39
19526;BME280;9907;42.676;26.348;2023-02-18T16:58:05;99032.38;;;14.36;47.38
19526;BME280;9907;42.676;26.348;2023-02-18T17:00:33;99045.41;;;14.31;47.02
19526;BME280;9907;42.676;26.348;2023-02-18T17:02:59;99033.78;;;14.48;47.03
19526;BME280;9907;42.676;26.348;2023-02-18T17:05:29;99043.84;;;14.46;47.04
19526;BME280;9907;42.676;26.348;2023-02-18T17:08:24;99044.34;;;14.50;47.24
19526;BME280;9907;42.676;26.348;2023-02-18T17:10:52;99052.56;;;14.40;46.95
19526;BME280;9907;42.676;26.348;2023-02-18T17:13:23;99047.50;;;14.37;46.96
19526;BME280;9907;42.676;26.348;2023-02-18T17:15:54;99047.81;;;14.34;47.59
19526;BME280;9907;42.676;26.348;2023-02-18T17:18:20;99051.13;;;14.28;47.76
19526;BME280;9907;42.676;26.348;2023-02-18T17:20:47;99039.06;;;14.32;47.30
19526;BME280;9907;42.676;26.348;2023-02-18T17:23:22;99040.88;;;14.32;47.40
19526;BME280;9907;42.676;26.348;2023-02-18T17:25:49;99038.53;;;14.29;47.73
19526;BME280;9907;42.676;26.348;2023-02-18T17:28:16;99048.50;;;14.36;47.83
19526;BME280;9907;42.676;26.348;2023-02-18T17:30:48;99031.47;;;14.28;47.43
19526;BME280;9907;42.676;26.348;2023-02-18T17:33:17;99029.28;;;14.31;47.81
19526;BME280;9907;42.676;26.348;2023-02-18T17:35:55;99028.63;;;14.29;47.46
19526;BME280;9907;42.676;26.348;2023-02-18T17:38:20;99030.63;;;14.27;47.93
19526;BME280;9907;42.676;26.348;2023-02-18T17:40:49;99026.28;;;14.26;47.81
19526;BME280;9907;42.676;26.348;2023-02-18T17:43:17;99027.59;;;14.30;47.76
19526;BME280;9907;42.676;26.348;2023-02-18T17:45:53;99032.16;;;14.30;47.66
19526;BME280;9907;42.676;26.348;2023-02-18T17:48:21;99022.41;;;14.29;47.60
19526;BME280;9907;42.676;26.348;2023-02-18T17:50:50;99031.66;;;14.26;48.02
19526;BME280;9907;42.676;26.348;2023-02-18T17:53:24;99022.56;;;14.27;47.61
19526;BME280;9907;42.676;26.348;2023-02-18T17:55:49;99007.47;;;14.26;47.92
19526;BME280;9907;42.676;26.348;2023-02-18T17:58:16;99011.47;;;14.30;47.99
19526;BME280;9907;42.676;26.348;2023-02-18T18:00:50;99005.97;;;14.32;47.98
19526;BME280;9907;42.676;26.348;2023-02-18T18:03:17;99015.56;;;14.34;47.75
19526;BME280;9907;42.676;26.348;2023-02-18T18:05:44;99002.44;;;14.31;47.81
19526;BME280;9907;42.676;26.348;2023-02-18T18:08:10;99017.25;;;14.35;48.25
19526;BME280;9907;42.676;26.348;2023-02-18T18:10:57;99012.34;;;14.31;48.38
19526;BME280;9907;42.676;26.348;2023-02-18T18:13:26;99013.72;;;14.35;50.64
19526;BME280;9907;42.676;26.348;2023-02-18T18:15:55;99015.72;;;14.33;48.68
19526;BME280;9907;42.676;26.348;2023-02-18T18:18:21;99019.25;;;14.33;48.72
19526;BME280;9907;42.676;26.348;2023-02-18T18:20:56;99010.19;;;14.34;48.07
19526;BME280;9907;42.676;26.348;2023-02-18T18:23:23;99010.50;;;14.31;48.63
19526;BME280;9907;42.676;26.348;2023-02-18T18:25:54;99011.03;;;14.35;48.49
19526;BME280;9907;42.676;26.348;2023-02-18T18:28:20;99005.84;;;14.41;48.07
19526;BME280;9907;42.676;26.348;2023-02-18T18:30:48;99011.22;;;14.41;48.56
19526;BME280;9907;42.676;26.348;2023-02-18T18:33:23;99005.53;;;14.36;48.44
19526;BME280;9907;42.676;26.348;2023-02-18T18:35:51;99011.19;;;14.33;48.14
19526;BME280;9907;42.676;26.348;2023-02-18T18:38:18;99010.81;;;14.28;48.59
19526;BME280;9907;42.676;26.348;2023-02-18T18:40:45;99009.78;;;14.21;48.66
19526;BME280;9907;42.676;26.348;2023-02-18T18:45:40;99020.91;;;14.26;48.06
19526;BME280;9907;42.676;26.348;2023-02-18T18:48:06;99018.50;;;14.15;48.29
19526;BME280;9907;42.676;26.348;2023-02-18T18:50:32;99029.06;;;14.17;48.55
19526;BME280;9907;42.676;26.348;2023-02-18T18:53:23;99044.66;;;14.13;48.36
19526;BME280;9907;42.676;26.348;2023-02-18T18:55:50;99034.63;;;14.15;48.21
19526;BME280;9907;42.676;26.348;2023-02-18T18:58:16;99040.13;;;14.13;48.28
19526;BME280;9907;42.676;26.348;2023-02-18T19:00:49;99030.56;;;14.11;48.27
19526;BME280;9907;42.676;26.348;2023-02-18T19:03:16;99042.97;;;14.12;48.12
19526;BME280;9907;42.676;26.348;2023-02-18T19:05:44;99037.06;;;14.08;47.98
19526;BME280;9907;42.676;26.348;2023-02-18T19:08:11;99031.19;;;14.05;48.40
19526;BME280;9907;42.676;26.348;2023-02-18T19:10:42;99038.25;;;14.06;48.47